Time;durP1;ratioP1;P1;durP2;ratioP2;P2;SDS_P1;SDS_P2;PMS_P1;PMS_P2;Temp;Humidity;BMP_temperature;BMP_pressure;BME280_temperature;BME280_humidity;BME280_pressure;Samples;Min_cycle;Max_cycle;Signal;HPM_P1;HPM_P2
2021/07/28 00:02:03;;;;;;;50.13;24.95;;;;;;;;;;5104109;28;20042;-90
2021/07/28 00:04:32;;;;;;;46.30;23.92;;;;;;;;;;5102384;28;20031;-90
2021/07/28 00:06:57;;;;;;;44.90;24.17;;;;;;;;;;5103060;28;20028;-91
2021/07/28 00:09:23;;;;;;;44.97;23.83;;;;;;;;;;5126426;28;20033;-87
2021/07/28 00:11:48;;;;;;;49.40;24.98;;;;;;;;;;5126439;28;20032;-90
2021/07/28 00:14:14;;;;;;;50.83;25.25;;;;;;;;;;5103731;28;20035;-91
2021/07/28 00:16:39;;;;;;;48.95;25.35;;;;;;;;;;5109458;28;20027;-90
2021/07/28 00:19:15;;;;;;;53.38;26.67;;;;;;;;;;5108576;28;20035;-91
2021/07/28 00:24:30;;;;;;;52.80;25.30;;;;;;;;;;5121920;28;20061;-90
2021/07/28 00:26:55;;;;;;;52.47;26.08;;;;;;;;;;5102701;28;20020;-90
2021/07/28 00:29:21;;;;;;;51.25;23.73;;;;;;;;;;5103046;28;20020;-89
2021/07/28 00:31:46;;;;;;;52.55;24.83;;;;;;;;;;5121958;28;20016;-90
2021/07/28 00:34:11;;;;;;;56.83;25.65;;;;;;;;;;5101885;28;20020;-90
2021/07/28 00:36:37;;;;;;;58.90;24.63;;;;;;;;;;5102135;28;20019;-91
2021/07/28 00:39:02;;;;;;;57.40;25.55;;;;;;;;;;5103759;28;20398;-91
2021/07/28 00:41:28;;;;;;;46.38;23.83;;;;;;;;;;5120583;28;20027;-90
2021/07/28 00:43:53;;;;;;;52.75;24.83;;;;;;;;;;5102585;28;20028;-91
2021/07/28 00:46:18;;;;;;;48.55;25.67;;;;;;;;;;5120942;28;20386;-90
2021/07/28 00:48:44;;;;;;;55.75;26.02;;;;;;;;;;5103081;28;20024;-90
2021/07/28 00:51:10;;;;;;;60.95;26.40;;;;;;;;;;5120215;28;20041;-90
2021/07/28 00:53:36;;;;;;;58.55;25.73;;;;;;;;;;5101654;28;20023;-90
2021/07/28 00:56:01;;;;;;;62.67;26.33;;;;;;;;;;5120173;28;20391;-90
2021/07/28 00:58:27;;;;;;;60.08;26.20;;;;;;;;;;5102407;28;20015;-90
2021/07/28 01:00:53;;;;;;;57.50;26.23;;;;;;;;;;5118706;28;20027;-88
2021/07/28 01:03:18;;;;;;;57.50;27.45;;;;;;;;;;5107677;28;20047;-89
2021/07/28 01:05:44;;;;;;;63.15;26.80;;;;;;;;;;5101889;28;20035;-89
2021/07/28 01:08:10;;;;;;;53.15;25.85;;;;;;;;;;5120778;28;20027;-90
2021/07/28 01:10:35;;;;;;;52.15;25.42;;;;;;;;;;5119769;28;20028;-89
2021/07/28 01:13:04;;;;;;;52.65;24.70;;;;;;;;;;5101562;28;20122;-90
2021/07/28 01:15:32;;;;;;;56.17;26.15;;;;;;;;;;5104268;28;20042;-90
2021/07/28 01:18:04;;;;;;;55.17;25.83;;;;;;;;;;5102486;28;20047;-90
2021/07/28 01:20:41;;;;;;;60.05;24.75;;;;;;;;;;5120140;28;20033;-89
2021/07/28 01:23:12;;;;;;;58.75;25.48;;;;;;;;;;5119365;28;20055;-90
2021/07/28 01:25:38;;;;;;;51.67;24.45;;;;;;;;;;5120109;28;20026;-89
2021/07/28 01:28:05;;;;;;;53.00;23.73;;;;;;;;;;5119852;28;20023;-89
2021/07/28 01:30:30;;;;;;;54.08;24.98;;;;;;;;;;5120330;28;20490;-89
2021/07/28 01:32:57;;;;;;;56.75;25.42;;;;;;;;;;5101413;28;20024;-90
2021/07/28 01:35:24;;;;;;;64.68;25.50;;;;;;;;;;5119471;28;20019;-89
2021/07/28 01:37:49;;;;;;;53.58;24.98;;;;;;;;;;5112719;28;20004;-88
2021/07/28 01:40:14;;;;;;;52.40;24.85;;;;;;;;;;5133868;28;20115;-90
2021/07/28 01:42:44;;;;;;;50.70;24.10;;;;;;;;;;5104031;28;20118;-90
2021/07/28 01:45:12;;;;;;;53.85;25.50;;;;;;;;;;5104602;28;20394;-89
2021/07/28 01:47:38;;;;;;;57.63;24.65;;;;;;;;;;5120895;28;20023;-89
2021/07/28 01:50:07;;;;;;;54.55;25.42;;;;;;;;;;5119788;28;20115;-89
2021/07/28 01:52:33;;;;;;;52.72;23.45;;;;;;;;;;5119872;28;20402;-89
2021/07/28 01:54:58;;;;;;;51.70;22.45;;;;;;;;;;5120832;28;20026;-89
2021/07/28 01:57:24;;;;;;;52.00;25.30;;;;;;;;;;5120837;28;20047;-89
2021/07/28 01:59:51;;;;;;;44.20;23.23;;;;;;;;;;5101011;28;20023;-90
2021/07/28 02:02:16;;;;;;;42.13;21.42;;;;;;;;;;5120519;28;20072;-90
2021/07/28 02:04:42;;;;;;;44.95;21.85;;;;;;;;;;5124417;28;20061;-88
2021/07/28 02:07:07;;;;;;;53.83;22.42;;;;;;;;;;5107022;28;20406;-89
2021/07/28 02:09:32;;;;;;;43.22;20.40;;;;;;;;;;5124863;28;20630;-90
2021/07/28 02:11:58;;;;;;;45.53;22.27;;;;;;;;;;5106276;28;20069;-88
2021/07/28 02:14:23;;;;;;;41.03;22.92;;;;;;;;;;5125419;28;20028;-89
2021/07/28 02:16:48;;;;;;;44.25;21.20;;;;;;;;;;5105737;28;20019;-88
2021/07/28 02:19:14;;;;;;;51.03;21.38;;;;;;;;;;5125281;28;20016;-89
2021/07/28 02:21:39;;;;;;;39.17;21.00;;;;;;;;;;5112705;28;20466;-90
2021/07/28 02:24:05;;;;;;;50.63;20.83;;;;;;;;;;5125394;28;20044;-89
2021/07/28 02:26:30;;;;;;;46.33;20.02;;;;;;;;;;5124074;28;20054;-89
2021/07/28 02:28:55;;;;;;;37.25;19.55;;;;;;;;;;5124509;28;20030;-89
2021/07/28 02:31:21;;;;;;;33.90;17.98;;;;;;;;;;5130986;28;20039;-89
2021/07/28 02:33:46;;;;;;;42.88;19.75;;;;;;;;;;5107128;28;20023;-90
2021/07/28 02:36:11;;;;;;;36.50;18.73;;;;;;;;;;5123823;28;20084;-89
2021/07/28 02:38:37;;;;;;;39.05;19.13;;;;;;;;;;5121445;28;20031;-90
2021/07/28 02:41:03;;;;;;;33.90;18.17;;;;;;;;;;5121237;28;20498;-89
2021/07/28 02:43:28;;;;;;;39.10;18.50;;;;;;;;;;5123158;28;20037;-89
2021/07/28 02:45:54;;;;;;;34.03;18.20;;;;;;;;;;5103815;28;20118;-89
2021/07/28 02:48:19;;;;;;;38.45;18.13;;;;;;;;;;5122742;28;20023;-89
2021/07/28 02:50:44;;;;;;;34.10;17.42;;;;;;;;;;5121985;28;20026;-89
2021/07/28 02:53:10;;;;;;;41.97;18.05;;;;;;;;;;5104231;28;20008;-89
2021/07/28 02:55:35;;;;;;;37.45;17.42;;;;;;;;;;5104419;28;20024;-89
2021/07/28 02:58:01;;;;;;;36.80;17.77;;;;;;;;;;5103757;28;20045;-90
2021/07/28 03:00:26;;;;;;;37.38;17.77;;;;;;;;;;5104067;28;20020;-89
2021/07/28 03:02:52;;;;;;;39.17;18.20;;;;;;;;;;5122709;28;20037;-89
2021/07/28 03:05:17;;;;;;;41.20;17.95;;;;;;;;;;5104816;28;20122;-88
2021/07/28 03:07:42;;;;;;;31.67;16.55;;;;;;;;;;5122838;28;20023;-90
2021/07/28 03:10:08;;;;;;;41.28;17.50;;;;;;;;;;5121662;28;20027;-90
2021/07/28 03:12:34;;;;;;;35.00;17.35;;;;;;;;;;5103443;28;20143;-88
2021/07/28 03:14:59;;;;;;;37.28;17.95;;;;;;;;;;5103066;28;20437;-88
2021/07/28 03:17:24;;;;;;;39.67;18.13;;;;;;;;;;5104033;28;20095;-89
2021/07/28 03:19:50;;;;;;;36.33;18.10;;;;;;;;;;5121732;28;20026;-89
2021/07/28 03:22:15;;;;;;;38.53;17.20;;;;;;;;;;5122193;28;20027;-89
2021/07/28 03:24:41;;;;;;;32.33;17.50;;;;;;;;;;5121605;28;20054;-89
2021/07/28 03:27:06;;;;;;;38.47;18.45;;;;;;;;;;5103031;28;20046;-89
2021/07/28 03:29:32;;;;;;;30.17;16.75;;;;;;;;;;5121524;28;20501;-89
2021/07/28 03:31:57;;;;;;;30.55;16.02;;;;;;;;;;5103811;28;20394;-89
2021/07/28 03:34:22;;;;;;;38.15;17.77;;;;;;;;;;5120686;28;20031;-89
2021/07/28 03:36:48;;;;;;;38.45;16.13;;;;;;;;;;5121663;28;20031;-89
2021/07/28 03:39:13;;;;;;;34.40;16.75;;;;;;;;;;5120382;28;20019;-89
2021/07/28 03:41:38;;;;;;;32.95;16.33;;;;;;;;;;5102165;28;20029;-89
2021/07/28 03:44:04;;;;;;;40.50;17.77;;;;;;;;;;5102941;28;20024;-89
2021/07/28 03:46:30;;;;;;;33.33;17.23;;;;;;;;;;5101824;28;20023;-89
2021/07/28 03:48:55;;;;;;;38.17;18.00;;;;;;;;;;5119908;28;20032;-89
2021/07/28 03:51:20;;;;;;;34.30;17.83;;;;;;;;;;5119952;28;20061;-89
2021/07/28 03:53:46;;;;;;;30.42;15.88;;;;;;;;;;5120902;28;20016;-89
2021/07/28 03:56:11;;;;;;;28.70;16.00;;;;;;;;;;5103895;28;20482;-89
2021/07/28 03:58:36;;;;;;;33.35;16.95;;;;;;;;;;5101716;28;20110;-89
2021/07/28 04:01:02;;;;;;;35.10;16.45;;;;;;;;;;5102778;28;20123;-88
2021/07/28 04:03:27;;;;;;;34.33;17.30;;;;;;;;;;5121054;28;20016;-90
2021/07/28 04:05:55;;;;;;;37.35;16.60;;;;;;;;;;5102487;28;20038;-89
2021/07/28 04:08:21;;;;;;;27.42;16.17;;;;;;;;;;5121245;28;20024;-89
2021/07/28 04:10:48;;;;;;;32.83;15.63;;;;;;;;;;5120143;28;20023;-89
2021/07/28 04:13:14;;;;;;;33.65;15.88;;;;;;;;;;5120699;28;20068;-89
2021/07/28 04:15:39;;;;;;;32.78;16.42;;;;;;;;;;5122035;28;20028;-89
2021/07/28 04:18:05;;;;;;;31.35;15.65;;;;;;;;;;5101614;28;20023;-88
2021/07/28 04:20:30;;;;;;;38.75;15.82;;;;;;;;;;5120413;28;20105;-89
2021/07/28 04:22:55;;;;;;;24.05;14.80;;;;;;;;;;5102024;28;20015;-89
2021/07/28 04:25:21;;;;;;;29.33;15.35;;;;;;;;;;5102189;28;20024;-89
2021/07/28 04:27:46;;;;;;;30.75;15.65;;;;;;;;;;5101329;28;20122;-88
2021/07/28 04:30:15;;;;;;;33.33;15.27;;;;;;;;;;5108083;28;20444;-90
2021/07/28 04:32:41;;;;;;;29.95;14.93;;;;;;;;;;5110653;28;20028;-89
2021/07/28 04:35:07;;;;;;;37.35;16.60;;;;;;;;;;5122951;28;20022;-90
2021/07/28 04:37:32;;;;;;;32.67;15.60;;;;;;;;;;5123667;28;20030;-89
2021/07/28 04:40:01;;;;;;;33.40;15.57;;;;;;;;;;5107564;28;20024;-90
2021/07/28 04:42:27;;;;;;;30.77;15.23;;;;;;;;;;5126360;28;20024;-90
2021/07/28 04:44:52;;;;;;;34.50;15.13;;;;;;;;;;5116440;28;20059;-89
2021/07/28 04:47:18;;;;;;;22.88;13.02;;;;;;;;;;5126175;28;20024;-90
2021/07/28 04:49:44;;;;;;;22.80;13.73;;;;;;;;;;5128036;28;20027;-88
2021/07/28 04:52:11;;;;;;;28.00;14.55;;;;;;;;;;5104582;28;20027;-89
2021/07/28 04:54:36;;;;;;;28.33;14.52;;;;;;;;;;5101536;28;20104;-89
2021/07/28 04:57:02;;;;;;;27.48;13.95;;;;;;;;;;5100168;28;20482;-89
2021/07/28 04:59:27;;;;;;;29.88;14.02;;;;;;;;;;5120475;28;20043;-89
2021/07/28 05:01:52;;;;;;;25.23;13.73;;;;;;;;;;5111393;28;20024;-88
2021/07/28 05:04:18;;;;;;;34.63;13.90;;;;;;;;;;5105097;28;20091;-89
2021/07/28 05:06:43;;;;;;;29.38;13.98;;;;;;;;;;5123879;28;20099;-87
2021/07/28 05:09:09;;;;;;;23.88;12.60;;;;;;;;;;5105610;28;20020;-89
2021/07/28 05:11:35;;;;;;;20.77;12.35;;;;;;;;;;5106043;28;20026;-89
2021/07/28 05:14:00;;;;;;;28.77;14.13;;;;;;;;;;5120057;28;20012;-88
2021/07/28 05:16:25;;;;;;;21.67;12.63;;;;;;;;;;5123350;28;20032;-89
2021/07/28 05:18:51;;;;;;;27.30;13.00;;;;;;;;;;5118908;28;20031;-89
2021/07/28 05:21:16;;;;;;;32.65;13.35;;;;;;;;;;5099791;28;20057;-88
2021/07/28 05:23:43;;;;;;;26.10;13.30;;;;;;;;;;5117642;28;20047;-89
2021/07/28 05:26:08;;;;;;;21.27;13.13;;;;;;;;;;5116636;28;20509;-89
2021/07/28 05:28:33;;;;;;;31.15;12.75;;;;;;;;;;5098166;28;20099;-88
2021/07/28 05:30:59;;;;;;;25.00;12.55;;;;;;;;;;5116673;28;20538;-89
2021/07/28 05:33:25;;;;;;;25.05;12.75;;;;;;;;;;5098369;28;20020;-90
2021/07/28 05:35:50;;;;;;;25.42;13.20;;;;;;;;;;5116456;28;20028;-87
2021/07/28 05:38:16;;;;;;;23.15;12.02;;;;;;;;;;5098193;28;20028;-86
2021/07/28 05:40:41;;;;;;;27.05;12.52;;;;;;;;;;5116122;28;20045;-86
2021/07/28 05:43:07;;;;;;;24.38;12.40;;;;;;;;;;5116115;28;20074;-86
2021/07/28 05:45:32;;;;;;;20.95;12.07;;;;;;;;;;5098530;28;20549;-86
2021/07/28 05:47:57;;;;;;;24.52;12.20;;;;;;;;;;5116847;28;20114;-86
2021/07/28 05:50:23;;;;;;;41.38;11.85;;;;;;;;;;5116581;28;20055;-86
2021/07/28 05:52:48;;;;;;;24.05;11.93;;;;;;;;;;5098282;28;20020;-87
2021/07/28 05:55:13;;;;;;;25.88;12.68;;;;;;;;;;5116538;28;20037;-87
2021/07/28 05:57:40;;;;;;;25.08;11.20;;;;;;;;;;5116508;28;20458;-87
2021/07/28 06:00:06;;;;;;;17.52;10.65;;;;;;;;;;5116308;28;20023;-87
2021/07/28 06:02:31;;;;;;;28.33;12.23;;;;;;;;;;5097524;28;20020;-87
2021/07/28 06:04:56;;;;;;;21.65;10.98;;;;;;;;;;5098299;28;20073;-87
2021/07/28 06:07:22;;;;;;;22.55;11.63;;;;;;;;;;5115358;28;20026;-87
2021/07/28 06:09:47;;;;;;;20.70;11.40;;;;;;;;;;5133570;28;20012;-85
2021/07/28 06:12:16;;;;;;;17.45;10.68;;;;;;;;;;5126783;28;20423;-86
2021/07/28 06:14:42;;;;;;;44.25;12.35;;;;;;;;;;5116323;28;20389;-86
2021/07/28 06:17:07;;;;;;;22.35;10.60;;;;;;;;;;5116164;28;20107;-87
2021/07/28 06:19:33;;;;;;;29.30;12.15;;;;;;;;;;5115879;28;20028;-86
2021/07/28 06:21:58;;;;;;;34.63;12.15;;;;;;;;;;5115519;28;20027;-87
2021/07/28 06:24:24;;;;;;;23.48;12.43;;;;;;;;;;5097664;28;20428;-87
2021/07/28 06:26:49;;;;;;;20.50;12.73;;;;;;;;;;5115604;28;20070;-86
2021/07/28 06:29:14;;;;;;;21.35;12.18;;;;;;;;;;5115180;28;20482;-88
2021/07/28 06:31:40;;;;;;;27.30;13.35;;;;;;;;;;5115856;28;20069;-88
2021/07/28 06:34:05;;;;;;;23.95;13.60;;;;;;;;;;5098121;28;20062;-88
2021/07/28 06:36:31;;;;;;;25.75;14.73;;;;;;;;;;5097518;28;20050;-87
2021/07/28 06:38:56;;;;;;;26.33;15.38;;;;;;;;;;5097601;28;20024;-87
2021/07/28 06:41:21;;;;;;;25.67;15.55;;;;;;;;;;5098007;28;20020;-87
2021/07/28 06:43:47;;;;;;;33.25;16.17;;;;;;;;;;5097559;28;20020;-87
2021/07/28 06:46:12;;;;;;;30.05;15.95;;;;;;;;;;5115570;28;20107;-87
2021/07/28 06:48:37;;;;;;;25.75;14.90;;;;;;;;;;5115987;28;20016;-87
2021/07/28 06:51:03;;;;;;;33.17;16.65;;;;;;;;;;5098455;28;20016;-87
2021/07/28 06:53:28;;;;;;;29.60;16.88;;;;;;;;;;5119832;28;20019;-87
2021/07/28 06:55:54;;;;;;;23.50;16.02;;;;;;;;;;5101246;28;20027;-87
2021/07/28 06:58:19;;;;;;;26.42;15.75;;;;;;;;;;5114881;28;20012;-86
2021/07/28 07:00:45;;;;;;;30.40;17.15;;;;;;;;;;5103331;28;20505;-87
2021/07/28 07:03:11;;;;;;;25.13;16.50;;;;;;;;;;5120559;28;20020;-87
2021/07/28 07:05:37;;;;;;;21.35;14.15;;;;;;;;;;5120457;28;20031;-87
2021/07/28 07:08:02;;;;;;;28.20;14.02;;;;;;;;;;5101136;28;20110;-87
2021/07/28 07:10:28;;;;;;;22.98;14.07;;;;;;;;;;5100674;28;20062;-87
2021/07/28 07:12:53;;;;;;;23.23;14.93;;;;;;;;;;5118678;28;20102;-86
2021/07/28 07:15:18;;;;;;;23.50;14.48;;;;;;;;;;5119573;28;20027;-87
2021/07/28 07:17:44;;;;;;;25.20;14.13;;;;;;;;;;5119541;28;20020;-87
2021/07/28 07:20:10;;;;;;;25.90;15.07;;;;;;;;;;5119234;28;20034;-86
2021/07/28 07:22:35;;;;;;;29.70;16.40;;;;;;;;;;5101831;28;20016;-86
2021/07/28 07:25:01;;;;;;;29.58;16.45;;;;;;;;;;5101123;28;20398;-88
2021/07/28 07:27:26;;;;;;;25.20;16.23;;;;;;;;;;5119844;28;20021;-86
2021/07/28 07:29:51;;;;;;;22.02;15.32;;;;;;;;;;5119468;28;20020;-87
2021/07/28 07:32:21;;;;;;;24.58;16.08;;;;;;;;;;5118886;28;20119;-86
2021/07/28 07:34:47;;;;;;;18.55;14.05;;;;;;;;;;5100580;28;20027;-86
2021/07/28 07:37:12;;;;;;;22.83;14.52;;;;;;;;;;5118403;28;20027;-86
2021/07/28 07:39:38;;;;;;;21.73;14.20;;;;;;;;;;5117637;28;20026;-86
2021/07/28 07:42:03;;;;;;;21.13;14.13;;;;;;;;;;5118865;28;20024;-86
2021/07/28 07:44:29;;;;;;;27.42;15.07;;;;;;;;;;5118858;28;20051;-86
2021/07/28 07:46:54;;;;;;;25.40;14.55;;;;;;;;;;5118522;28;20030;-86
2021/07/28 07:49:21;;;;;;;22.38;14.05;;;;;;;;;;5118449;28;20019;-86
2021/07/28 07:51:46;;;;;;;20.73;13.45;;;;;;;;;;5118206;28;20020;-86
2021/07/28 07:54:11;;;;;;;18.90;13.88;;;;;;;;;;5119285;28;20058;-86
2021/07/28 07:56:37;;;;;;;15.40;11.85;;;;;;;;;;5100310;28;20023;-86
2021/07/28 07:59:02;;;;;;;22.00;12.98;;;;;;;;;;5118358;28;20027;-85
2021/07/28 08:01:28;;;;;;;27.92;13.32;;;;;;;;;;5117623;28;20024;-86
2021/07/28 08:03:53;;;;;;;28.42;12.07;;;;;;;;;;5117725;28;20031;-86
2021/07/28 08:06:18;;;;;;;22.08;11.95;;;;;;;;;;5117738;28;20016;-85
2021/07/28 08:08:44;;;;;;;18.25;12.73;;;;;;;;;;5117556;28;20020;-86
2021/07/28 08:11:13;;;;;;;24.65;12.50;;;;;;;;;;5117383;28;20032;-86
2021/07/28 08:13:39;;;;;;;22.67;12.07;;;;;;;;;;5117245;28;20023;-85
2021/07/28 08:16:16;;;;;;;18.05;11.95;;;;;;;;;;5118260;28;20034;-85
2021/07/28 08:18:42;;;;;;;22.25;11.38;;;;;;;;;;5106914;28;20020;-86
2021/07/28 08:21:09;;;;;;;31.73;12.90;;;;;;;;;;5099223;28;20034;-85
2021/07/28 08:23:38;;;;;;;32.33;13.63;;;;;;;;;;5099722;28;20474;-86
2021/07/28 08:26:03;;;;;;;20.52;11.38;;;;;;;;;;5099854;28;20042;-87
2021/07/28 08:28:29;;;;;;;19.20;10.90;;;;;;;;;;5099406;28;20051;-85
2021/07/28 08:30:55;;;;;;;14.70;10.55;;;;;;;;;;5117634;28;20022;-87
2021/07/28 08:33:23;;;;;;;16.50;11.07;;;;;;;;;;5117493;28;20019;-86
2021/07/28 08:35:48;;;;;;;23.38;10.82;;;;;;;;;;5117645;28;20027;-85
2021/07/28 08:38:14;;;;;;;28.67;11.00;;;;;;;;;;5098891;28;20177;-86
2021/07/28 08:40:41;;;;;;;14.23;9.80;;;;;;;;;;5117344;28;20042;-86
2021/07/28 08:43:07;;;;;;;12.50;8.90;;;;;;;;;;5099243;28;20027;-86
2021/07/28 08:45:33;;;;;;;13.60;9.07;;;;;;;;;;5116903;28;20034;-86
2021/07/28 08:47:59;;;;;;;13.20;8.95;;;;;;;;;;5098613;28;20478;-86
2021/07/28 08:50:28;;;;;;;13.95;9.05;;;;;;;;;;5117360;28;20027;-87
2021/07/28 08:52:56;;;;;;;14.23;8.85;;;;;;;;;;5098848;28;20023;-86
2021/07/28 08:55:22;;;;;;;14.23;8.52;;;;;;;;;;5098471;28;20020;-87
2021/07/28 08:57:48;;;;;;;11.88;8.80;;;;;;;;;;5116998;28;20028;-86
2021/07/28 09:00:13;;;;;;;14.23;8.88;;;;;;;;;;5116757;28;20061;-87
2021/07/28 09:02:39;;;;;;;14.35;8.45;;;;;;;;;;5099251;28;20019;-87
2021/07/28 09:05:05;;;;;;;42.80;10.43;;;;;;;;;;5098253;28;20603;-84
2021/07/28 09:07:38;;;;;;;12.07;9.48;;;;;;;;;;5098482;28;20054;-84
2021/07/28 09:10:04;;;;;;;13.20;9.40;;;;;;;;;;5098027;28;20035;-85
2021/07/28 09:12:32;;;;;;;14.18;10.13;;;;;;;;;;5112277;28;20019;-86
2021/07/28 09:15:01;;;;;;;13.43;9.00;;;;;;;;;;5099849;28;20035;-85
2021/07/28 09:17:27;;;;;;;20.95;9.93;;;;;;;;;;5097924;28;20115;-85
2021/07/28 09:19:54;;;;;;;11.98;10.35;;;;;;;;;;5098146;28;20034;-85
2021/07/28 09:22:20;;;;;;;13.00;9.05;;;;;;;;;;5098225;28;20031;-85
2021/07/28 09:25:06;;;;;;;12.00;8.90;;;;;;;;;;5098216;28;20087;-85
2021/07/28 09:27:52;;;;;;;16.95;8.80;;;;;;;;;;5136762;22;20482;-89
2021/07/28 09:30:24;;;;;;;13.90;8.93;;;;;;;;;;5117054;28;20513;-88
2021/07/28 09:33:04;;;;;;;13.63;7.97;;;;;;;;;;5097800;28;20032;-89
2021/07/28 09:35:48;;;;;;;12.77;8.07;;;;;;;;;;5115635;28;20028;-90
2021/07/28 09:38:45;;;;;;;10.10;7.57;;;;;;;;;;5115744;28;20028;-86
2021/07/28 09:41:17;;;;;;;10.63;8.30;;;;;;;;;;5097767;28;20067;-89
2021/07/28 09:43:48;;;;;;;9.55;7.43;;;;;;;;;;5103547;28;20046;-88
2021/07/28 09:46:25;;;;;;;9.80;8.23;;;;;;;;;;5097056;28;20024;-89
2021/07/28 09:48:51;;;;;;;26.90;8.25;;;;;;;;;;5097587;28;20359;-88
2021/07/28 09:51:29;;;;;;;9.65;7.60;;;;;;;;;;5115341;28;20031;-87
2021/07/28 09:54:05;;;;;;;10.98;6.53;;;;;;;;;;5096858;28;20118;-88
2021/07/28 09:56:45;;;;;;;10.43;6.28;;;;;;;;;;5096804;28;20026;-89
2021/07/28 09:59:11;;;;;;;7.50;5.82;;;;;;;;;;5099658;28;20207;-89
2021/07/28 10:01:37;;;;;;;11.93;5.85;;;;;;;;;;5115791;28;20031;-89
2021/07/28 10:04:05;;;;;;;7.45;6.10;;;;;;;;;;5098304;28;20090;-88
2021/07/28 10:06:39;;;;;;;10.25;5.50;;;;;;;;;;5105502;28;20032;-88
2021/07/28 10:09:12;;;;;;;8.50;5.07;;;;;;;;;;5096764;28;20368;-90
2021/07/28 10:11:39;;;;;;;6.82;5.15;;;;;;;;;;5096703;28;20015;-86
2021/07/28 10:14:05;;;;;;;18.95;6.00;;;;;;;;;;5100535;28;20087;-89
2021/07/28 10:16:34;;;;;;;9.00;5.45;;;;;;;;;;5127510;28;20049;-90
2021/07/28 10:19:04;;;;;;;9.95;4.97;;;;;;;;;;5111241;28;20023;-90
2021/07/28 10:21:34;;;;;;;8.45;5.93;;;;;;;;;;5129984;28;20004;-89
2021/07/28 10:24:01;;;;;;;8.43;5.75;;;;;;;;;;5109210;28;20024;-90
2021/07/28 10:26:27;;;;;;;7.95;5.55;;;;;;;;;;5129003;28;20034;-87
2021/07/28 10:28:54;;;;;;;8.45;5.57;;;;;;;;;;5114503;28;20095;-89
2021/07/28 10:31:21;;;;;;;7.13;5.72;;;;;;;;;;5134466;28;20024;-89
2021/07/28 10:33:50;;;;;;;8.05;5.63;;;;;;;;;;5132148;28;20518;-91
2021/07/28 10:36:17;;;;;;;8.75;5.95;;;;;;;;;;5112767;28;20414;-90
2021/07/28 10:38:58;;;;;;;7.72;5.57;;;;;;;;;;5131243;28;20024;-89
2021/07/28 10:41:41;;;;;;;8.57;6.07;;;;;;;;;;5132975;28;20034;-90
2021/07/28 10:44:07;;;;;;;8.68;6.00;;;;;;;;;;5113355;28;20024;-89
2021/07/28 10:46:55;;;;;;;10.02;5.97;;;;;;;;;;5114211;28;20050;-90
2021/07/28 10:49:44;;;;;;;7.18;5.55;;;;;;;;;;5113120;28;20047;-90
2021/07/28 10:52:44;;;;;;;35.95;7.40;;;;;;;;;;5104179;28;20058;-90
2021/07/28 10:55:15;;;;;;;8.60;5.78;;;;;;;;;;5131966;28;20042;-90
2021/07/28 10:58:10;;;;;;;9.25;6.25;;;;;;;;;;5112678;28;20027;-90
2021/07/28 11:00:38;;;;;;;6.78;5.88;;;;;;;;;;5131513;28;20132;-90
2021/07/28 11:03:13;;;;;;;16.95;6.20;;;;;;;;;;5132512;28;20027;-90
2021/07/28 11:05:42;;;;;;;14.27;6.05;;;;;;;;;;5113071;28;20072;-89
2021/07/28 11:08:09;;;;;;;15.85;5.90;;;;;;;;;;5130867;28;20023;-89
2021/07/28 11:10:36;;;;;;;8.13;5.60;;;;;;;;;;5131490;28;20023;-90
2021/07/28 11:13:09;;;;;;;7.43;5.57;;;;;;;;;;5138249;27;20054;-90
2021/07/28 11:15:36;;;;;;;8.48;5.18;;;;;;;;;;5133098;28;20030;-90
2021/07/28 11:18:02;;;;;;;11.73;5.75;;;;;;;;;;5112965;28;20031;-88
2021/07/28 11:20:29;;;;;;;6.32;5.35;;;;;;;;;;5112694;28;20030;-88
2021/07/28 11:23:30;;;;;;;8.93;5.50;;;;;;;;;;5129755;28;20019;-90
2021/07/28 11:25:57;;;;;;;7.22;5.68;;;;;;;;;;5130976;28;20023;-90
2021/07/28 11:28:23;;;;;;;6.03;5.43;;;;;;;;;;5130281;28;20028;-90
2021/07/28 11:30:56;;;;;;;7.47;5.35;;;;;;;;;;5133088;27;20003;-90
2021/07/28 11:33:23;;;;;;;9.93;4.68;;;;;;;;;;5117495;28;20036;-90
2021/07/28 11:35:51;;;;;;;5.72;3.58;;;;;;;;;;5131819;28;20073;-89
2021/07/28 11:38:27;;;;;;;9.13;3.45;;;;;;;;;;5112687;28;20157;-89
2021/07/28 11:40:56;;;;;;;8.80;3.88;;;;;;;;;;5111642;28;20030;-89
2021/07/28 11:43:30;;;;;;;5.97;3.83;;;;;;;;;;5132399;27;20023;-90
2021/07/28 11:46:10;;;;;;;8.27;3.90;;;;;;;;;;5130570;28;20023;-88
2021/07/28 11:48:46;;;;;;;5.03;3.50;;;;;;;;;;5129783;28;20043;-90
2021/07/28 11:51:22;;;;;;;5.95;3.30;;;;;;;;;;5131054;28;20065;-89
2021/07/28 11:53:49;;;;;;;5.00;3.17;;;;;;;;;;5132862;28;20020;-88
2021/07/28 11:56:16;;;;;;;5.30;3.00;;;;;;;;;;5127947;28;20096;-88
2021/07/28 11:58:46;;;;;;;5.57;3.30;;;;;;;;;;5117129;28;20192;-89
2021/07/28 12:01:28;;;;;;;17.27;3.90;;;;;;;;;;5119671;28;20103;-89
2021/07/28 12:04:05;;;;;;;4.57;2.60;;;;;;;;;;5120890;28;20047;-89
2021/07/28 12:06:38;;;;;;;5.72;2.45;;;;;;;;;;5107061;28;20076;-88
2021/07/28 12:09:18;;;;;;;5.43;2.60;;;;;;;;;;5110740;28;20019;-89
2021/07/28 12:11:46;;;;;;;6.82;2.60;;;;;;;;;;5120615;28;20043;-90
2021/07/28 12:14:38;;;;;;;3.97;2.60;;;;;;;;;;5102820;28;20027;-89
2021/07/28 12:17:17;;;;;;;3.83;2.60;;;;;;;;;;5120969;28;20016;-90
2021/07/28 12:19:54;;;;;;;7.63;2.55;;;;;;;;;;5102734;28;20032;-89
2021/07/28 12:22:49;;;;;;;7.88;2.60;;;;;;;;;;5119953;28;20103;-90
2021/07/28 12:25:17;;;;;;;4.05;1.98;;;;;;;;;;5100970;28;20035;-89
2021/07/28 12:28:12;;;;;;;5.03;2.13;;;;;;;;;;5101755;28;20031;-89
2021/07/28 12:30:39;;;;;;;5.60;2.13;;;;;;;;;;5119817;28;20149;-90
2021/07/28 12:33:15;;;;;;;6.53;1.85;;;;;;;;;;5102110;28;20020;-90
2021/07/28 12:35:49;;;;;;;6.32;1.77;;;;;;;;;;5102894;28;20471;-89
2021/07/28 12:38:21;;;;;;;5.90;2.13;;;;;;;;;;5101766;28;20035;-89
2021/07/28 12:41:04;;;;;;;3.35;1.70;;;;;;;;;;5119210;28;20030;-88
2021/07/28 12:43:35;;;;;;;9.65;1.55;;;;;;;;;;5100196;28;20020;-89
2021/07/28 12:46:06;;;;;;;6.53;1.73;;;;;;;;;;5101002;28;20495;-88
2021/07/28 12:48:34;;;;;;;13.23;2.08;;;;;;;;;;5118722;28;20019;-89
2021/07/28 12:51:03;;;;;;;1.40;1.30;;;;;;;;;;5118838;28;20016;-88
2021/07/28 12:53:30;;;;;;;2.55;1.50;;;;;;;;;;5118835;28;20020;-89
2021/07/28 12:55:56;;;;;;;4.55;1.50;;;;;;;;;;5118706;28;20539;-89
2021/07/28 12:58:22;;;;;;;6.68;1.52;;;;;;;;;;5100598;28;20023;-91
2021/07/28 13:00:48;;;;;;;3.88;1.55;;;;;;;;;;5105884;28;20023;-88
2021/07/28 13:03:21;;;;;;;4.32;1.50;;;;;;;;;;5102337;28;20114;-90
2021/07/28 13:05:47;;;;;;;2.40;1.42;;;;;;;;;;5101246;28;20031;-91
2021/07/28 13:08:13;;;;;;;5.28;1.30;;;;;;;;;;5101907;28;20041;-90
2021/07/28 13:10:46;;;;;;;15.88;1.90;;;;;;;;;;5119981;28;20019;-90
2021/07/28 13:13:12;;;;;;;3.90;1.60;;;;;;;;;;5101911;28;20355;-90
2021/07/28 13:15:40;;;;;;;3.55;1.73;;;;;;;;;;5103755;28;20535;-87
2021/07/28 13:18:06;;;;;;;2.72;1.30;;;;;;;;;;5104251;28;20034;-89
2021/07/28 13:20:32;;;;;;;7.50;1.52;;;;;;;;;;5110456;28;20171;-88
2021/07/28 13:22:58;;;;;;;3.95;1.42;;;;;;;;;;5111632;27;20012;-88
2021/07/28 13:25:23;;;;;;;3.13;1.48;;;;;;;;;;5126157;27;20024;-88
2021/07/28 13:27:49;;;;;;;12.35;1.48;;;;;;;;;;5104815;28;20024;-88
2021/07/28 13:30:14;;;;;;;9.95;1.45;;;;;;;;;;5110193;28;20075;-87
2021/07/28 13:32:40;;;;;;;6.47;2.17;;;;;;;;;;5104409;28;20032;-89
2021/07/28 13:35:06;;;;;;;8.70;2.00;;;;;;;;;;5121036;28;20084;-88
2021/07/28 13:37:32;;;;;;;6.80;1.50;;;;;;;;;;5102665;28;20023;-87
2021/07/28 13:39:58;;;;;;;3.60;1.55;;;;;;;;;;5131858;27;20028;-89
2021/07/28 13:42:23;;;;;;;7.72;1.58;;;;;;;;;;5104278;28;20019;-88
2021/07/28 13:44:49;;;;;;;2.58;1.42;;;;;;;;;;5108119;28;20083;-89
2021/07/28 13:47:14;;;;;;;2.20;1.30;;;;;;;;;;5124015;28;20034;-87
2021/07/28 13:49:40;;;;;;;5.95;1.70;;;;;;;;;;5119811;28;20023;-88
2021/07/28 13:52:05;;;;;;;3.22;1.55;;;;;;;;;;5119583;28;20020;-89
2021/07/28 13:54:31;;;;;;;2.25;1.45;;;;;;;;;;5118138;28;20139;-89
2021/07/28 13:57:09;;;;;;;3.10;1.50;;;;;;;;;;5116126;28;20504;-89
2021/07/28 13:59:34;;;;;;;3.72;1.38;;;;;;;;;;5116129;28;20027;-89
2021/07/28 14:01:59;;;;;;;4.28;1.60;;;;;;;;;;5119579;28;20020;-90
2021/07/28 14:04:25;;;;;;;3.28;1.40;;;;;;;;;;5101187;28;20033;-89
2021/07/28 14:06:50;;;;;;;4.15;1.52;;;;;;;;;;5119898;28;20019;-88
2021/07/28 14:09:16;;;;;;;5.00;1.90;;;;;;;;;;5119710;28;20055;-89
2021/07/28 14:11:41;;;;;;;4.97;1.52;;;;;;;;;;5119982;28;20098;-89
2021/07/28 14:14:06;;;;;;;5.47;1.40;;;;;;;;;;5119770;28;20052;-89
2021/07/28 14:16:32;;;;;;;6.65;1.58;;;;;;;;;;5119138;28;20079;-88
2021/07/28 14:18:57;;;;;;;5.13;1.70;;;;;;;;;;5119440;28;20364;-87
2021/07/28 14:21:22;;;;;;;5.13;1.42;;;;;;;;;;5126684;27;20037;-87
2021/07/28 14:23:48;;;;;;;8.65;2.10;;;;;;;;;;5124257;27;20084;-90
2021/07/28 14:26:13;;;;;;;3.92;2.00;;;;;;;;;;5118638;28;20092;-89
2021/07/28 14:28:38;;;;;;;5.75;1.90;;;;;;;;;;5101875;28;20030;-90
2021/07/28 14:31:04;;;;;;;11.82;1.83;;;;;;;;;;5100915;28;20015;-89
2021/07/28 14:33:29;;;;;;;4.90;1.40;;;;;;;;;;5119011;28;20023;-89